createdAt,value
2018-03-01T00:00:51.871Z,988.77
2018-03-01T00:01:51.864Z,988.70
2018-03-01T00:02:51.854Z,988.75
2018-03-01T00:03:51.844Z,988.82
2018-03-01T00:04:51.837Z,988.83
2018-03-01T00:05:51.836Z,988.85
2018-03-01T00:06:51.821Z,988.78
2018-03-01T00:07:51.812Z,988.75
2018-03-01T00:08:51.804Z,988.83
2018-03-01T00:09:51.796Z,988.80
2018-03-01T00:10:51.788Z,988.79
2018-03-01T00:11:51.779Z,988.79
2018-03-01T00:12:51.771Z,988.82
2018-03-01T00:13:51.760Z,988.90
2018-03-01T00:14:51.753Z,988.87
2018-03-01T00:15:51.745Z,988.90
2018-03-01T00:16:51.736Z,988.99
2018-03-01T00:17:51.727Z,989.07
2018-03-01T00:18:51.719Z,989.05
2018-03-01T00:19:51.711Z,988.99
2018-03-01T00:20:51.702Z,989.02
2018-03-01T00:21:51.695Z,988.98
2018-03-01T00:22:51.685Z,989.11
2018-03-01T00:23:51.679Z,989.12
2018-03-01T00:24:51.670Z,989.15
2018-03-01T00:25:51.660Z,989.11
2018-03-01T00:26:51.654Z,989.17
2018-03-01T00:27:51.644Z,989.14
2018-03-01T00:28:51.637Z,989.11
2018-03-01T00:29:51.628Z,989.00
2018-03-01T00:30:51.620Z,988.88
2018-03-01T00:31:51.611Z,988.86
2018-03-01T00:32:51.607Z,988.92
2018-03-01T00:33:51.594Z,988.83
2018-03-01T00:34:51.590Z,988.83
2018-03-01T00:35:51.577Z,988.62
2018-03-01T00:36:51.567Z,988.59
2018-03-01T00:37:51.561Z,988.55
2018-03-01T00:38:51.553Z,988.55
2018-03-01T00:39:51.544Z,988.47
2018-03-01T00:40:51.536Z,988.45
2018-03-01T00:41:51.527Z,988.39
2018-03-01T00:42:51.518Z,988.30
2018-03-01T00:43:51.510Z,988.28
2018-03-01T00:44:51.500Z,988.10
2018-03-01T00:45:51.493Z,988.03
2018-03-01T00:46:51.483Z,988.03
2018-03-01T00:47:51.478Z,987.99
2018-03-01T00:48:51.471Z,987.84
2018-03-01T00:49:51.458Z,987.75
2018-03-01T00:50:51.453Z,987.77
2018-03-01T00:51:51.444Z,987.91
2018-03-01T00:52:51.435Z,987.78
2018-03-01T00:53:51.425Z,987.87
2018-03-01T00:54:51.415Z,988.00
2018-03-01T00:55:51.410Z,987.85
2018-03-01T00:56:51.400Z,987.84
2018-03-01T00:57:51.394Z,988.02
2018-03-01T00:58:51.382Z,988.02
2018-03-01T00:59:51.375Z,988.02
2018-03-01T01:00:51.368Z,988.11
2018-03-01T01:01:51.358Z,988.04
2018-03-01T01:02:51.350Z,988.20
2018-03-01T01:03:51.343Z,988.12
2018-03-01T01:04:51.334Z,988.30
2018-03-01T01:05:51.324Z,988.34
2018-03-01T01:06:51.317Z,988.27
2018-03-01T01:07:51.308Z,988.34
2018-03-01T01:08:51.301Z,988.32
2018-03-01T01:09:51.291Z,988.35
2018-03-01T01:10:51.281Z,988.35
2018-03-01T01:11:51.281Z,988.40
2018-03-01T01:12:51.265Z,988.54
2018-03-01T01:13:51.257Z,988.57
2018-03-01T01:14:51.249Z,988.43
2018-03-01T01:15:51.244Z,988.52
2018-03-01T01:16:51.233Z,988.60
2018-03-01T01:17:51.223Z,988.42
2018-03-01T01:18:51.255Z,988.31
2018-03-01T01:19:51.207Z,988.32
2018-03-01T01:20:51.200Z,988.32
2018-03-01T01:21:51.191Z,988.32
2018-03-01T01:22:51.182Z,988.31
2018-03-01T01:23:51.173Z,988.40
2018-03-01T01:24:51.164Z,988.40
2018-03-01T01:25:51.160Z,988.34
2018-03-01T01:26:51.149Z,988.42
2018-03-01T01:27:51.141Z,988.44
2018-03-01T01:28:51.131Z,988.44
2018-03-01T01:29:51.124Z,988.44
2018-03-01T01:30:51.118Z,988.49
2018-03-01T01:31:51.104Z,988.39
2018-03-01T01:32:51.097Z,988.42
2018-03-01T01:33:51.090Z,988.45
2018-03-01T01:34:51.081Z,988.38
2018-03-01T01:35:51.072Z,988.50
2018-03-01T01:36:51.065Z,988.35
2018-03-01T01:37:51.056Z,988.29
2018-03-01T01:38:51.046Z,988.21
2018-03-01T01:39:51.039Z,988.17
2018-03-01T01:40:51.029Z,988.16
2018-03-01T01:41:51.020Z,988.13
2018-03-01T01:42:51.013Z,988.03
2018-03-01T01:43:51.003Z,987.99
2018-03-01T01:44:50.997Z,988.08
2018-03-01T01:45:50.989Z,988.03
2018-03-01T01:46:50.979Z,987.97
2018-03-01T01:47:50.971Z,987.99
2018-03-01T01:48:50.963Z,987.91
2018-03-01T01:49:50.953Z,987.97
2018-03-01T01:50:50.946Z,987.94
2018-03-01T01:51:50.937Z,987.92
2018-03-01T01:52:50.929Z,987.96
2018-03-01T01:53:50.919Z,987.97
2018-03-01T01:54:50.918Z,987.94
2018-03-01T01:55:50.904Z,987.93
2018-03-01T01:56:50.896Z,987.92
2018-03-01T01:57:50.887Z,987.86
2018-03-01T01:58:50.878Z,987.81
2018-03-01T01:59:50.870Z,987.80
2018-03-01T02:00:50.861Z,987.79
2018-03-01T02:01:50.852Z,987.76
2018-03-01T02:02:50.845Z,987.84
2018-03-01T02:03:50.836Z,987.89
2018-03-01T02:04:50.828Z,987.81
2018-03-01T02:05:50.817Z,987.83
2018-03-01T02:06:50.810Z,987.81
2018-03-01T02:07:50.802Z,987.80
2018-03-01T02:08:50.792Z,987.69
2018-03-01T02:09:50.786Z,987.68
2018-03-01T02:10:50.779Z,987.62
2018-03-01T02:11:50.769Z,987.65
2018-03-01T02:12:50.764Z,987.75
2018-03-01T02:13:50.751Z,987.69
2018-03-01T02:14:50.744Z,987.72
2018-03-01T02:15:50.737Z,987.63
2018-03-01T02:16:50.726Z,987.62
2018-03-01T02:17:50.718Z,987.59
2018-03-01T02:18:50.710Z,987.53
2018-03-01T02:19:50.700Z,987.53
2018-03-01T02:20:50.692Z,987.46
2018-03-01T02:21:50.685Z,987.44
2018-03-01T02:22:50.678Z,987.54
2018-03-01T02:23:50.673Z,987.47
2018-03-01T02:24:50.660Z,987.48
2018-03-01T02:25:50.654Z,987.49
2018-03-01T02:26:50.643Z,987.48
2018-03-01T02:27:50.634Z,987.49
2018-03-01T02:28:50.625Z,987.52
2018-03-01T02:29:50.616Z,987.44
2018-03-01T02:30:50.609Z,987.52
2018-03-01T02:31:50.612Z,987.44
2018-03-01T02:32:50.602Z,987.46
2018-03-01T02:33:50.583Z,987.41
2018-03-01T02:34:50.576Z,987.40
2018-03-01T02:35:50.572Z,987.36
2018-03-01T02:36:50.558Z,987.29
2018-03-01T02:37:50.564Z,987.31
2018-03-01T02:38:50.543Z,987.24
2018-03-01T02:39:50.550Z,987.20
2018-03-01T02:40:50.526Z,987.25
2018-03-01T02:41:50.516Z,987.20
2018-03-01T02:42:50.566Z,987.16
2018-03-01T02:43:50.500Z,987.18
2018-03-01T02:44:50.492Z,987.14
2018-03-01T02:45:50.482Z,987.13
2018-03-01T02:46:50.473Z,987.11
2018-03-01T02:47:50.465Z,987.12
2018-03-01T02:48:50.456Z,987.14
2018-03-01T02:49:50.446Z,987.07
2018-03-01T02:50:50.442Z,986.96
2018-03-01T02:51:50.434Z,986.98
2018-03-01T02:52:50.423Z,986.92
2018-03-01T02:53:50.413Z,986.84
2018-03-01T02:54:50.407Z,986.83
2018-03-01T02:55:50.401Z,986.79
2018-03-01T02:56:50.394Z,986.78
2018-03-01T02:57:50.383Z,986.78
2018-03-01T02:58:50.373Z,986.81
2018-03-01T02:59:50.363Z,986.83
2018-03-01T03:00:50.357Z,986.80
2018-03-01T03:01:50.347Z,986.78
2018-03-01T03:02:50.338Z,986.90
2018-03-01T03:03:50.329Z,986.83
2018-03-01T03:04:50.323Z,986.77
2018-03-01T03:05:50.313Z,986.87
2018-03-01T03:06:50.306Z,986.81
2018-03-01T03:07:50.299Z,986.65
2018-03-01T03:08:50.287Z,986.74
2018-03-01T03:09:50.281Z,986.75
2018-03-01T03:10:50.271Z,986.70
2018-03-01T03:11:50.262Z,986.77
2018-03-01T03:12:50.254Z,986.61
2018-03-01T03:13:50.245Z,986.63
2018-03-01T03:14:50.238Z,986.51
2018-03-01T03:15:50.228Z,986.58
2018-03-01T03:16:50.219Z,986.52
2018-03-01T03:17:50.211Z,986.65
2018-03-01T03:18:50.205Z,986.56
2018-03-01T03:19:50.195Z,986.56
2018-03-01T03:20:50.186Z,986.60
2018-03-01T03:21:50.177Z,986.54
2018-03-01T03:22:50.169Z,986.60
2018-03-01T03:23:50.160Z,986.54
2018-03-01T03:24:50.154Z,986.46
2018-03-01T03:25:50.142Z,986.42
2018-03-01T03:26:50.134Z,986.44
2018-03-01T03:27:50.126Z,986.36
2018-03-01T03:28:50.118Z,986.36
2018-03-01T03:29:50.111Z,986.34
2018-03-01T03:30:50.104Z,986.30
2018-03-01T03:31:50.091Z,986.17
2018-03-01T03:32:50.085Z,986.35
2018-03-01T03:33:50.080Z,986.28
2018-03-01T03:34:50.066Z,986.22
2018-03-01T03:35:50.059Z,986.19
2018-03-01T03:36:50.050Z,986.11
2018-03-01T03:37:50.040Z,986.09
2018-03-01T03:38:50.032Z,986.04
2018-03-01T03:39:50.026Z,986.06
2018-03-01T03:40:50.017Z,986.04
2018-03-01T03:41:50.007Z,986.00
2018-03-01T03:42:49.999Z,986.09
2018-03-01T03:43:49.989Z,986.10
2018-03-01T03:44:49.982Z,986.08
2018-03-01T03:45:49.972Z,986.05
2018-03-01T03:46:49.965Z,986.01
2018-03-01T03:47:49.955Z,986.09
2018-03-01T03:48:49.948Z,986.01
2018-03-01T03:49:49.941Z,986.04
2018-03-01T03:50:49.932Z,986.16
2018-03-01T03:51:49.922Z,986.09
2018-03-01T03:52:49.914Z,986.04
2018-03-01T03:53:49.904Z,986.02
2018-03-01T03:54:49.897Z,986.11
2018-03-01T03:55:49.888Z,986.12
2018-03-01T03:56:49.880Z,986.04
2018-03-01T03:57:49.871Z,986.08
2018-03-01T03:58:49.862Z,986.08
2018-03-01T03:59:49.859Z,986.09
2018-03-01T04:00:49.846Z,985.97
2018-03-01T04:01:49.838Z,985.99
2018-03-01T04:02:49.830Z,985.95
2018-03-01T04:03:49.821Z,985.90
2018-03-01T04:04:49.811Z,985.93
2018-03-01T04:05:49.804Z,985.94
2018-03-01T04:06:49.794Z,985.97
2018-03-01T04:07:49.787Z,985.91
2018-03-01T04:08:49.777Z,985.86
2018-03-01T04:09:49.848Z,985.93
2018-03-01T04:10:49.789Z,985.91
2018-03-01T04:11:49.781Z,985.86
2018-03-01T04:12:49.745Z,985.89
2018-03-01T04:13:49.753Z,985.82
2018-03-01T04:14:49.744Z,985.86
2018-03-01T04:15:49.721Z,985.80
2018-03-01T04:16:49.712Z,985.81
2018-03-01T04:17:49.711Z,985.74
2018-03-01T04:18:49.696Z,985.74
2018-03-01T04:19:49.686Z,985.66
2018-03-01T04:20:49.680Z,985.76
2018-03-01T04:21:49.667Z,985.66
2018-03-01T04:22:49.677Z,985.64
2018-03-01T04:23:49.653Z,985.62
2018-03-01T04:24:49.646Z,985.65
2018-03-01T04:25:49.637Z,985.61
2018-03-01T04:26:49.631Z,985.59
2018-03-01T04:27:49.621Z,985.59
2018-03-01T04:28:49.610Z,985.51
2018-03-01T04:29:49.602Z,985.51
2018-03-01T04:30:49.595Z,985.55
2018-03-01T04:31:49.599Z,985.56
2018-03-01T04:32:49.580Z,985.55
2018-03-01T04:33:49.571Z,985.53
2018-03-01T04:34:49.563Z,985.59
2018-03-01T04:35:49.554Z,985.55
2018-03-01T04:36:49.546Z,985.50
2018-03-01T04:37:49.536Z,985.51
2018-03-01T04:38:49.528Z,985.57
2018-03-01T04:39:49.521Z,985.56
2018-03-01T04:40:49.510Z,985.58
2018-03-01T04:41:49.501Z,985.60
2018-03-01T04:42:49.496Z,985.55
2018-03-01T04:43:49.492Z,985.69
2018-03-01T04:44:49.481Z,985.62
2018-03-01T04:45:49.473Z,985.52
2018-03-01T04:46:49.465Z,985.53
2018-03-01T04:47:49.453Z,985.65
2018-03-01T04:48:49.448Z,985.56
2018-03-01T04:49:49.438Z,985.55
2018-03-01T04:50:49.431Z,985.48
2018-03-01T04:51:49.424Z,985.50
2018-03-01T04:52:49.414Z,985.53
2018-03-01T04:53:49.406Z,985.51
2018-03-01T04:54:49.396Z,985.50
2018-03-01T04:55:49.389Z,985.50
2018-03-01T04:56:49.381Z,985.45
2018-03-01T04:57:49.372Z,985.42
2018-03-01T04:58:49.363Z,985.34
2018-03-01T04:59:49.357Z,985.44
2018-03-01T05:00:49.348Z,985.31
2018-03-01T05:01:49.339Z,985.41
2018-03-01T05:02:49.331Z,985.39
2018-03-01T05:03:49.322Z,985.47
2018-03-01T05:04:49.313Z,985.33
2018-03-01T05:05:49.303Z,985.41
2018-03-01T05:06:49.298Z,985.36
2018-03-01T05:07:49.290Z,985.40
2018-03-01T05:08:49.280Z,985.47
2018-03-01T05:09:49.269Z,985.46
2018-03-01T05:10:49.262Z,985.40
2018-03-01T05:11:49.253Z,985.36
2018-03-01T05:12:49.245Z,985.40
2018-03-01T05:13:49.235Z,985.22
2018-03-01T05:14:49.225Z,985.31
2018-03-01T05:15:49.218Z,985.31
2018-03-01T05:16:49.210Z,985.33
2018-03-01T05:17:49.200Z,985.27
2018-03-01T05:18:49.191Z,985.40
2018-03-01T05:19:49.184Z,985.44
2018-03-01T05:20:49.176Z,985.27
2018-03-01T05:21:49.167Z,985.32
2018-03-01T05:22:49.156Z,985.39
2018-03-01T05:23:49.150Z,985.32
2018-03-01T05:24:49.141Z,985.32
2018-03-01T05:25:49.133Z,985.37
2018-03-01T05:26:49.253Z,985.32
2018-03-01T05:27:49.120Z,985.29
2018-03-01T05:28:49.107Z,985.38
2018-03-01T05:29:49.097Z,985.20
2018-03-01T05:30:49.089Z,985.19
2018-03-01T05:31:49.080Z,985.27
2018-03-01T05:32:49.073Z,985.20
2018-03-01T05:33:49.066Z,985.19
2018-03-01T05:34:49.060Z,985.24
2018-03-01T05:35:49.046Z,985.28
2018-03-01T05:36:49.038Z,985.26
2018-03-01T05:37:49.029Z,985.30
2018-03-01T05:38:49.021Z,985.31
2018-03-01T05:39:49.013Z,985.29
2018-03-01T05:40:49.005Z,985.30
2018-03-01T05:41:48.996Z,985.38
2018-03-01T05:42:48.988Z,985.35
2018-03-01T05:43:48.981Z,985.41
2018-03-01T05:44:48.971Z,985.33
2018-03-01T05:45:48.964Z,985.35
2018-03-01T05:46:48.959Z,985.34
2018-03-01T05:47:48.960Z,985.33
2018-03-01T05:48:48.938Z,985.33
2018-03-01T05:49:48.929Z,985.36
2018-03-01T05:50:48.921Z,985.34
2018-03-01T05:51:48.917Z,985.39
2018-03-01T05:52:48.904Z,985.36
2018-03-01T05:53:48.895Z,985.37
2018-03-01T05:54:48.889Z,985.38
2018-03-01T05:55:48.882Z,985.32
2018-03-01T05:56:48.873Z,985.38
2018-03-01T05:57:48.867Z,985.35
2018-03-01T05:58:48.882Z,985.38
2018-03-01T05:59:48.846Z,985.36
2018-03-01T06:00:48.843Z,985.36
2018-03-01T06:01:48.831Z,985.35
2018-03-01T06:02:48.823Z,985.30
2018-03-01T06:03:48.814Z,985.30
2018-03-01T06:04:48.804Z,985.35
2018-03-01T06:05:48.797Z,985.37
2018-03-01T06:06:48.789Z,985.33
2018-03-01T06:07:48.789Z,985.40
2018-03-01T06:08:48.774Z,985.35
2018-03-01T06:09:48.764Z,985.37
2018-03-01T06:10:48.756Z,985.36
2018-03-01T06:11:48.751Z,985.37
2018-03-01T06:12:48.740Z,985.33
2018-03-01T06:13:48.731Z,985.26
2018-03-01T06:14:48.723Z,985.35
2018-03-01T06:15:48.716Z,985.37
2018-03-01T06:16:48.710Z,985.32
2018-03-01T06:17:48.695Z,985.41
2018-03-01T06:18:48.691Z,985.28
2018-03-01T06:19:48.682Z,985.36
2018-03-01T06:20:48.675Z,985.35
2018-03-01T06:21:48.665Z,985.29
2018-03-01T06:22:48.657Z,985.25
2018-03-01T06:23:48.649Z,985.24
2018-03-01T06:24:48.640Z,985.31
2018-03-01T06:25:48.631Z,985.30
2018-03-01T06:26:48.625Z,985.34
2018-03-01T06:27:48.614Z,985.35
2018-03-01T06:28:48.607Z,985.40
2018-03-01T06:29:48.597Z,985.38
2018-03-01T06:30:48.590Z,985.35
2018-03-01T06:31:48.581Z,985.36
2018-03-01T06:32:48.573Z,985.36
2018-03-01T06:33:48.568Z,985.44
2018-03-01T06:34:48.556Z,985.31
2018-03-01T06:35:48.555Z,985.29
2018-03-01T06:36:48.540Z,985.26
2018-03-01T06:37:48.530Z,985.26
2018-03-01T06:38:48.522Z,985.20
2018-03-01T06:39:48.518Z,985.25
2018-03-01T06:40:48.511Z,985.25
2018-03-01T06:41:48.497Z,985.32
2018-03-01T06:42:48.489Z,985.28
2018-03-01T06:43:48.481Z,985.36
2018-03-01T06:44:48.480Z,985.34
2018-03-01T06:45:48.478Z,985.37
2018-03-01T06:46:48.455Z,985.37
2018-03-01T06:47:48.449Z,985.36
2018-03-01T06:48:48.441Z,985.35
2018-03-01T06:49:48.436Z,985.32
2018-03-01T06:50:48.422Z,985.33
2018-03-01T06:51:48.414Z,985.33
2018-03-01T06:52:48.408Z,985.32
2018-03-01T06:53:48.397Z,985.26
2018-03-01T06:54:48.390Z,985.25
2018-03-01T06:55:48.380Z,985.19
2018-03-01T06:56:48.372Z,985.26
2018-03-01T06:57:48.364Z,985.26
2018-03-01T06:58:48.355Z,985.32
2018-03-01T06:59:48.348Z,985.30
2018-03-01T07:00:48.340Z,985.32
2018-03-01T07:01:48.332Z,985.30
2018-03-01T07:02:48.325Z,985.27
2018-03-01T07:03:48.315Z,985.32
2018-03-01T07:04:48.307Z,985.30
2018-03-01T07:05:48.348Z,985.26
2018-03-01T07:06:48.294Z,985.33
2018-03-01T07:07:48.286Z,985.38
2018-03-01T07:08:48.273Z,985.34
2018-03-01T07:09:48.265Z,985.32
2018-03-01T07:10:48.257Z,985.34
2018-03-01T07:11:48.250Z,985.34
2018-03-01T07:12:48.239Z,985.25
2018-03-01T07:13:48.230Z,985.25
2018-03-01T07:14:48.221Z,985.23
2018-03-01T07:15:48.215Z,985.21
2018-03-01T07:16:48.207Z,985.18
2018-03-01T07:17:48.198Z,985.17
2018-03-01T07:18:48.189Z,985.13
2018-03-01T07:19:48.182Z,985.13
2018-03-01T07:20:48.174Z,985.11
2018-03-01T07:21:48.167Z,985.09
2018-03-01T07:22:48.156Z,985.15
2018-03-01T07:23:48.149Z,985.11
2018-03-01T07:24:48.140Z,985.02
2018-03-01T07:25:48.131Z,985.04
2018-03-01T07:26:48.122Z,984.94
2018-03-01T07:27:48.159Z,984.96
2018-03-01T07:28:48.107Z,984.98
2018-03-01T07:29:48.100Z,984.90
2018-03-01T07:30:48.089Z,984.90
2018-03-01T07:31:48.081Z,984.91
2018-03-01T07:32:48.073Z,984.88
2018-03-01T07:33:48.063Z,984.92
2018-03-01T07:34:48.057Z,984.87
2018-03-01T07:35:48.049Z,984.89
2018-03-01T07:36:48.040Z,984.83
2018-03-01T07:37:48.032Z,984.87
2018-03-01T07:38:48.028Z,984.78
2018-03-01T07:39:48.015Z,984.74
2018-03-01T07:40:48.007Z,984.75
2018-03-01T07:41:47.997Z,984.74
2018-03-01T07:42:47.991Z,984.69
2018-03-01T07:43:47.982Z,984.66
2018-03-01T07:44:47.972Z,984.67
2018-03-01T07:45:47.965Z,984.70
2018-03-01T07:46:47.956Z,984.64
2018-03-01T07:47:47.948Z,984.61
2018-03-01T07:48:47.940Z,984.57
2018-03-01T07:49:47.931Z,984.60
2018-03-01T07:50:47.923Z,984.52
2018-03-01T07:51:47.922Z,984.55
2018-03-01T07:52:47.911Z,984.51
2018-03-01T07:53:47.899Z,984.50
2018-03-01T07:54:47.893Z,984.49
2018-03-01T07:55:47.880Z,984.47
2018-03-01T07:56:47.873Z,984.46
2018-03-01T07:57:47.862Z,984.46
2018-03-01T07:58:47.856Z,984.41
2018-03-01T07:59:47.850Z,984.38
2018-03-01T08:00:47.839Z,984.40
2018-03-01T08:01:47.832Z,984.39
2018-03-01T08:02:47.824Z,984.41
2018-03-01T08:03:47.814Z,984.43
2018-03-01T08:04:47.807Z,984.40
2018-03-01T08:05:47.798Z,984.39
2018-03-01T08:06:47.789Z,984.42
2018-03-01T08:07:47.781Z,984.43
2018-03-01T08:08:47.773Z,984.46
2018-03-01T08:09:47.765Z,984.46
2018-03-01T08:10:47.756Z,984.49
2018-03-01T08:11:47.749Z,984.41
2018-03-01T08:12:47.740Z,984.41
2018-03-01T08:13:47.732Z,984.41
2018-03-01T08:14:47.724Z,984.41
2018-03-01T08:15:47.716Z,984.47
2018-03-01T08:16:47.709Z,984.47
2018-03-01T08:17:47.698Z,984.54
2018-03-01T08:18:47.690Z,984.52
2018-03-01T08:19:47.682Z,984.54
2018-03-01T08:20:47.674Z,984.51
2018-03-01T08:21:47.666Z,984.50
2018-03-01T08:22:47.655Z,984.50
2018-03-01T08:23:47.649Z,984.49
2018-03-01T08:24:47.642Z,984.51
2018-03-01T08:25:47.633Z,984.56
2018-03-01T08:26:47.623Z,984.57
2018-03-01T08:27:47.617Z,984.59
2018-03-01T08:28:47.608Z,984.58
2018-03-01T08:29:47.599Z,984.58
2018-03-01T08:30:47.590Z,984.62
2018-03-01T08:31:47.582Z,984.54
2018-03-01T08:32:47.576Z,984.57
2018-03-01T08:33:47.566Z,984.61
2018-03-01T08:34:47.559Z,984.59
2018-03-01T08:35:47.551Z,984.53
2018-03-01T08:36:47.544Z,984.45
2018-03-01T08:37:47.531Z,984.41
2018-03-01T08:38:47.526Z,984.41
2018-03-01T08:39:47.518Z,984.42
2018-03-01T08:40:47.510Z,984.38
2018-03-01T08:41:47.501Z,984.40
2018-03-01T08:42:47.539Z,984.39
2018-03-01T08:43:47.483Z,984.37
2018-03-01T08:44:47.477Z,984.41
2018-03-01T08:45:47.466Z,984.42
2018-03-01T08:46:47.461Z,984.39
2018-03-01T08:47:47.476Z,984.48
2018-03-01T08:48:47.463Z,984.42
2018-03-01T08:49:47.437Z,984.42
2018-03-01T08:50:47.427Z,984.42
2018-03-01T08:51:47.420Z,984.38
2018-03-01T08:52:47.412Z,984.43
2018-03-01T08:53:47.405Z,984.40
2018-03-01T08:54:47.396Z,984.36
2018-03-01T08:55:47.388Z,984.35
2018-03-01T08:56:47.383Z,984.32
2018-03-01T08:57:47.430Z,984.23
2018-03-01T08:58:47.364Z,984.30
2018-03-01T08:59:47.397Z,984.24
2018-03-01T09:00:47.349Z,984.27
2018-03-01T09:01:47.342Z,984.32
2018-03-01T09:02:47.335Z,984.21
2018-03-01T09:03:47.325Z,984.23
2018-03-01T09:04:47.317Z,984.20
2018-03-01T09:05:47.309Z,984.21
2018-03-01T09:06:47.299Z,984.13
2018-03-01T09:07:47.292Z,984.17
2018-03-01T09:08:47.285Z,984.12
2018-03-01T09:09:47.277Z,984.20
2018-03-01T09:10:47.269Z,984.13
2018-03-01T09:11:47.261Z,984.06
2018-03-01T09:12:47.257Z,984.14
2018-03-01T09:13:47.247Z,984.09
2018-03-01T09:14:47.237Z,984.07
2018-03-01T09:15:47.230Z,984.14
2018-03-01T09:16:47.223Z,984.08
2018-03-01T09:17:47.219Z,984.13
2018-03-01T09:18:47.208Z,983.95
2018-03-01T09:19:47.201Z,984.12
2018-03-01T09:20:47.194Z,984.07
2018-03-01T09:21:47.186Z,984.16
2018-03-01T09:22:47.177Z,984.07
2018-03-01T09:23:47.175Z,984.08
2018-03-01T09:24:47.170Z,984.03
2018-03-01T09:25:47.159Z,983.99
2018-03-01T09:26:47.150Z,983.99
2018-03-01T09:27:47.144Z,984.07
2018-03-01T09:28:47.139Z,983.99
2018-03-01T09:29:47.126Z,983.91
2018-03-01T09:30:47.118Z,983.97
2018-03-01T09:31:47.112Z,984.03
2018-03-01T09:32:47.102Z,984.02
2018-03-01T09:33:47.097Z,984.04
2018-03-01T09:34:47.090Z,984.01
2018-03-01T09:35:47.082Z,984.10
2018-03-01T09:36:47.077Z,984.10
2018-03-01T09:37:47.068Z,984.13
2018-03-01T09:38:47.062Z,984.00
2018-03-01T09:39:47.055Z,984.01
2018-03-01T09:40:47.047Z,984.03
2018-03-01T09:41:47.041Z,984.05
2018-03-01T09:42:47.033Z,983.89
2018-03-01T09:43:47.028Z,983.93
2018-03-01T09:44:47.022Z,984.03
2018-03-01T09:45:47.014Z,983.95
2018-03-01T09:46:47.006Z,983.90
2018-03-01T09:47:47.002Z,983.89
2018-03-01T09:48:46.994Z,983.95
2018-03-01T09:49:46.985Z,983.97
2018-03-01T09:50:46.979Z,983.92
2018-03-01T09:51:46.971Z,983.85
2018-03-01T09:52:46.966Z,983.92
2018-03-01T09:53:46.962Z,983.94
2018-03-01T09:54:46.952Z,983.89
2018-03-01T09:55:46.945Z,983.88
2018-03-01T09:56:46.941Z,983.84
2018-03-01T09:57:46.931Z,983.78
2018-03-01T09:58:46.928Z,983.76
2018-03-01T09:59:46.920Z,983.81
2018-03-01T10:00:46.912Z,983.75
2018-03-01T10:01:46.904Z,983.67
2018-03-01T10:02:46.900Z,983.73
2018-03-01T10:03:46.893Z,983.72
2018-03-01T10:04:46.888Z,983.78
2018-03-01T10:05:46.878Z,983.71
2018-03-01T10:06:46.875Z,983.62
2018-03-01T10:07:46.867Z,983.61
2018-03-01T10:08:46.861Z,983.56
2018-03-01T10:09:46.852Z,983.56
2018-03-01T10:10:46.848Z,983.46
2018-03-01T10:11:46.842Z,983.51
2018-03-01T10:12:46.833Z,983.46
2018-03-01T10:13:46.829Z,983.50
2018-03-01T10:14:46.823Z,983.57
2018-03-01T10:15:46.815Z,983.56
2018-03-01T10:16:46.811Z,983.48
2018-03-01T10:17:46.801Z,983.49
2018-03-01T10:18:46.798Z,983.45
2018-03-01T10:19:46.790Z,983.45
2018-03-01T10:20:46.785Z,983.58
2018-03-01T10:21:46.777Z,983.46
2018-03-01T10:22:46.772Z,983.38
2018-03-01T10:23:46.765Z,983.43
2018-03-01T10:24:46.760Z,983.34
2018-03-01T10:25:46.753Z,983.35
2018-03-01T10:26:46.748Z,983.34
2018-03-01T10:27:46.745Z,983.41
2018-03-01T10:28:46.735Z,983.39
2018-03-01T10:29:46.727Z,983.33
2018-03-01T10:30:46.761Z,983.34
2018-03-01T10:31:46.716Z,983.31
2018-03-01T10:32:46.715Z,983.24
2018-03-01T10:33:46.705Z,983.23
2018-03-01T10:34:46.694Z,983.26
2018-03-01T10:35:46.690Z,983.26
2018-03-01T10:36:46.683Z,983.12
2018-03-01T10:37:46.676Z,983.17
2018-03-01T10:38:46.671Z,983.18
2018-03-01T10:39:46.666Z,983.13
2018-03-01T10:40:46.660Z,983.07
2018-03-01T10:41:46.654Z,983.15
2018-03-01T10:42:46.646Z,983.19
2018-03-01T10:43:46.638Z,983.15
2018-03-01T10:44:46.634Z,983.16
2018-03-01T10:45:46.629Z,983.06
2018-03-01T10:46:46.622Z,983.14
2018-03-01T10:47:46.616Z,983.26
2018-03-01T10:48:46.609Z,983.19
2018-03-01T10:49:46.602Z,983.17
2018-03-01T10:50:46.600Z,983.08
2018-03-01T10:51:46.591Z,983.02
2018-03-01T10:52:46.583Z,982.99
2018-03-01T10:53:46.579Z,982.92
2018-03-01T10:54:46.573Z,982.95
2018-03-01T10:55:46.567Z,982.98
2018-03-01T10:56:46.562Z,982.89
2018-03-01T10:57:46.553Z,982.90
2018-03-01T10:58:46.549Z,982.93
2018-03-01T10:59:46.540Z,982.92
2018-03-01T11:00:46.537Z,982.90
2018-03-01T11:01:46.529Z,982.87
2018-03-01T11:02:46.522Z,982.91
2018-03-01T11:03:46.519Z,982.90
2018-03-01T11:04:46.510Z,982.85
2018-03-01T11:05:46.503Z,982.86
2018-03-01T11:06:46.497Z,982.78
2018-03-01T11:07:46.492Z,982.71
2018-03-01T11:08:46.485Z,982.77
2018-03-01T11:09:46.479Z,982.85
2018-03-01T11:10:46.514Z,982.78
2018-03-01T11:11:46.465Z,982.82
2018-03-01T11:12:46.461Z,982.74
2018-03-01T11:13:46.451Z,982.80
2018-03-01T11:14:46.447Z,982.73
2018-03-01T11:15:46.442Z,982.77
2018-03-01T11:16:46.435Z,982.73
2018-03-01T11:17:46.425Z,982.69
2018-03-01T11:18:46.422Z,982.80
2018-03-01T11:19:46.414Z,982.69
2018-03-01T11:20:46.410Z,982.65
2018-03-01T11:21:46.404Z,982.63
2018-03-01T11:22:46.396Z,982.62
2018-03-01T11:23:46.390Z,982.57
2018-03-01T11:24:46.384Z,982.57
2018-03-01T11:25:46.377Z,982.55
2018-03-01T11:26:46.371Z,982.52
2018-03-01T11:27:46.363Z,982.55
2018-03-01T11:28:46.358Z,982.58
2018-03-01T11:29:46.355Z,982.55
2018-03-01T11:30:46.344Z,982.54
2018-03-01T11:31:46.340Z,982.56
2018-03-01T11:32:46.335Z,982.55
2018-03-01T11:33:46.326Z,982.55
2018-03-01T11:34:46.386Z,982.52
2018-03-01T11:35:46.315Z,982.53
2018-03-01T11:36:46.307Z,982.49
2018-03-01T11:37:46.300Z,982.48
2018-03-01T11:38:46.307Z,982.61
2018-03-01T11:39:46.287Z,982.45
2018-03-01T11:40:46.282Z,982.40
2018-03-01T11:41:46.275Z,982.45
2018-03-01T11:42:46.272Z,982.36
2018-03-01T11:43:46.261Z,982.37
2018-03-01T11:44:46.256Z,982.30
2018-03-01T11:45:46.250Z,982.34
2018-03-01T11:46:46.244Z,982.29
2018-03-01T11:47:46.236Z,982.29
2018-03-01T11:48:46.230Z,982.25
2018-03-01T11:49:46.224Z,982.24
2018-03-01T11:50:46.251Z,982.24
2018-03-01T11:51:46.211Z,982.31
2018-03-01T11:52:46.204Z,982.19
2018-03-01T11:53:46.198Z,982.29
2018-03-01T11:54:46.190Z,982.17
2018-03-01T11:55:46.183Z,982.14
2018-03-01T11:56:46.177Z,982.12
2018-03-01T11:57:46.170Z,982.13
2018-03-01T11:58:46.164Z,981.97
2018-03-01T11:59:46.180Z,982.07
2018-03-01T12:00:46.178Z,981.99
2018-03-01T12:01:46.143Z,981.92
2018-03-01T12:02:46.141Z,982.03
2018-03-01T12:03:46.130Z,981.88
2018-03-01T12:04:46.125Z,981.85
2018-03-01T12:05:46.118Z,981.85
2018-03-01T12:06:46.110Z,981.89
2018-03-01T12:07:46.106Z,981.82
2018-03-01T12:08:46.100Z,981.73
2018-03-01T12:09:46.090Z,981.74
2018-03-01T12:10:46.085Z,981.66
2018-03-01T12:11:46.078Z,981.62
2018-03-01T12:12:46.078Z,981.58
2018-03-01T12:13:46.065Z,981.57
2018-03-01T12:14:46.060Z,981.49
2018-03-01T12:15:46.052Z,981.42
2018-03-01T12:16:46.045Z,981.45
2018-03-01T12:17:46.038Z,981.46
2018-03-01T12:18:46.031Z,981.45
2018-03-01T12:19:46.024Z,981.50
2018-03-01T12:20:46.020Z,981.46
2018-03-01T12:21:46.011Z,981.49
2018-03-01T12:22:46.003Z,981.49
2018-03-01T12:23:45.996Z,981.44
2018-03-01T12:24:45.989Z,981.33
2018-03-01T12:25:45.982Z,981.33
2018-03-01T12:26:45.975Z,981.27
2018-03-01T12:27:45.970Z,981.27
2018-03-01T12:28:45.962Z,981.29